Costa Atlantica — IBLQ — position and weather

sailwx.info

Track history (hours):
 
Tides and Currents Weather Stations Pressure Air Temp Water Temp Dewpoint Dewpoint Depression Visibility Wind Speed Wind Dir Waves Ship Positions

Costa Atlantica (Italy)

Last reported at 2019-Aug-23 12:41 UTC. Time now 2019-Aug-24 06:55 UTC.
Position N 25°20' E 122°04'.

Length 292 m; draft 8 m.

Type: Ship. MMSI: 247595017.

Date/timePositionNaut miles runAvg speedWind from/ knotsBaromVisibWave heightAir tempDewpointWater temp
2019-Aug-23 12:41N 25°20' E 122°04'420.6
2019-Aug-23 12:29N 25°20' E 121°60'1020.0
2019-Aug-23 11:58N 25°21' E 121°48'1019.4
2019-Aug-23 11:26N 25°22' E 121°37'1119.8
2019-Aug-23 10:53N 25°21' E 121°25'920.1
2019-Aug-23 10:27N 25°18' E 121°16'1119.0
2019-Aug-23 09:54N 25°15' E 121°05'819.6
2019-Aug-23 09:30N 25°13' E 120°56'43017.2
2019-Aug-22 08:31N 22°15' E 113°49'115.7
2019-Aug-22 08:27N 22°16' E 113°48'714.8
2019-Aug-22 08:00N 22°23' E 113°50'5 0.5
2019-Aug-21 22:10N 22°18' E 113°48'210.9
2019-Aug-21 21:58N 22°16' E 113°48'714.9
2019-Aug-21 21:29N 22°09' E 113°51'711.9
2019-Aug-21 20:53N 22°02' E 113°52'716.7
2019-Aug-21 20:27N 21°55' E 113°52'814.9
2019-Aug-21 19:54N 21°47' E 113°53'22618.7
2019-Aug-21 07:49N 23°09' E 117°41'23719.6
2019-Aug-20 19:44N 25°20' E 121°17'519.6
2019-Aug-20 19:29N 25°21' E 121°23'1119.8
2019-Aug-20 18:57N 25°24' E 121°34'919.7
2019-Aug-20 18:31N 25°23' E 121°43'1120.6
2019-Aug-20 17:59N 25°22' E 121°55'1020.5
2019-Aug-20 17:29N 25°20' E 122°06'1120.3
2019-Aug-20 16:58N 25°19' E 122°18'1121.0
2019-Aug-20 16:26N 25°18' E 122°30'23 0.5
2019-Aug-18 16:38N 25°12' E 122°06'218.1
2019-Aug-18 16:30N 25°13' E 122°04'917.5
2019-Aug-18 15:58N 25°16' E 121°54'816.2
2019-Aug-18 15:27N 25°20' E 121°46'815.9
2019-Aug-18 14:57N 25°22' E 121°38'816.5
2019-Aug-18 14:30N 25°24' E 121°30'918.0
2019-Aug-18 14:00N 25°21' E 121°20'1319.1
2019-Aug-18 13:20N 25°17' E 121°07'1520.0
2019-Aug-18 12:35N 25°14' E 120°50'220.4
2019-Aug-18 12:28N 25°13' E 120°48'42317.3
2019-Aug-17 12:06N 22°18' E 113°48'414.7
2019-Aug-17 11:50N 22°21' E 113°49'515.2
2019-Aug-17 11:29N 22°26' E 113°52'1 0.1
2019-Aug-17 01:56N 22°26' E 113°53'512.3
2019-Aug-17 01:30N 22°22' E 113°50'1114.3
2019-Aug-17 00:46N 22°11' E 113°50'512.5
2019-Aug-17 00:23N 22°06' E 113°51'616.6
2019-Aug-17 00:00N 22°00' E 113°52'1019.1
2019-Aug-16 23:30N 21°51' E 113°52'24917.7
2019-Aug-16 09:23N 23°21' E 118°03'21019.1
2019-Aug-15 22:22N 25°20' E 121°13'1419.5
2019-Aug-15 21:40N 25°22' E 121°28'319.1
2019-Aug-15 21:30N 25°23' E 121°32'1019.0
2019-Aug-15 20:59N 25°22' E 121°43'1018.8
2019-Aug-15 20:28N 25°21' E 121°53'2219.1
2019-Aug-15 19:20N 25°18' E 122°17'719.6
2019-Aug-15 18:59N 25°17' E 122°24'1019.0
2019-Aug-15 18:28N 25°17' E 122°35'  
2019-Aug-13 13:10N 25°17' E 122°19'  
Track history (hours):
 
Tides and Currents Weather Stations Pressure Air Temp Water Temp Dewpoint Dewpoint Depression Visibility Wind Speed Wind Dir Waves Ship Positions

Costa Atlantica (Italy)

Last reported at 2019-Aug-23 12:41 UTC. Time now 2019-Aug-24 06:55 UTC.
Position N 25°20' E 122°04'.

Length 292 m; draft 8 m.

Type: Ship. MMSI: 247595017.

Date/timePositionNaut miles runAvg speedWind from/ knotsBaromVisibWave heightAir tempDewpointWater temp
2019-Aug-23 12:41N 25°20' E 122°04'420.6
2019-Aug-23 12:29N 25°20' E 121°60'1020.0
2019-Aug-23 11:58N 25°21' E 121°48'1019.4
2019-Aug-23 11:26N 25°22' E 121°37'1119.8
2019-Aug-23 10:53N 25°21' E 121°25'920.1
2019-Aug-23 10:27N 25°18' E 121°16'1119.0
2019-Aug-23 09:54N 25°15' E 121°05'819.6
2019-Aug-23 09:30N 25°13' E 120°56'43017.2
2019-Aug-22 08:31N 22°15' E 113°49'115.7
2019-Aug-22 08:27N 22°16' E 113°48'714.8
2019-Aug-22 08:00N 22°23' E 113°50'5 0.5
2019-Aug-21 22:10N 22°18' E 113°48'210.9
2019-Aug-21 21:58N 22°16' E 113°48'714.9
2019-Aug-21 21:29N 22°09' E 113°51'711.9
2019-Aug-21 20:53N 22°02' E 113°52'716.7
2019-Aug-21 20:27N 21°55' E 113°52'814.9
2019-Aug-21 19:54N 21°47' E 113°53'22618.7
2019-Aug-21 07:49N 23°09' E 117°41'23719.6
2019-Aug-20 19:44N 25°20' E 121°17'519.6
2019-Aug-20 19:29N 25°21' E 121°23'1119.8
2019-Aug-20 18:57N 25°24' E 121°34'919.7
2019-Aug-20 18:31N 25°23' E 121°43'1120.6
2019-Aug-20 17:59N 25°22' E 121°55'1020.5
2019-Aug-20 17:29N 25°20' E 122°06'1120.3
2019-Aug-20 16:58N 25°19' E 122°18'1121.0
2019-Aug-20 16:26N 25°18' E 122°30'23 0.5
2019-Aug-18 16:38N 25°12' E 122°06'218.1
2019-Aug-18 16:30N 25°13' E 122°04'917.5
2019-Aug-18 15:58N 25°16' E 121°54'816.2
2019-Aug-18 15:27N 25°20' E 121°46'815.9
2019-Aug-18 14:57N 25°22' E 121°38'816.5
2019-Aug-18 14:30N 25°24' E 121°30'918.0
2019-Aug-18 14:00N 25°21' E 121°20'1319.1
2019-Aug-18 13:20N 25°17' E 121°07'1520.0
2019-Aug-18 12:35N 25°14' E 120°50'220.4
2019-Aug-18 12:28N 25°13' E 120°48'42317.3
2019-Aug-17 12:06N 22°18' E 113°48'414.7
2019-Aug-17 11:50N 22°21' E 113°49'515.2
2019-Aug-17 11:29N 22°26' E 113°52'1 0.1
2019-Aug-17 01:56N 22°26' E 113°53'512.3
2019-Aug-17 01:30N 22°22' E 113°50'1114.3
2019-Aug-17 00:46N 22°11' E 113°50'512.5
2019-Aug-17 00:23N 22°06' E 113°51'616.6
2019-Aug-17 00:00N 22°00' E 113°52'1019.1
2019-Aug-16 23:30N 21°51' E 113°52'24917.7
2019-Aug-16 09:23N 23°21' E 118°03'21019.1
2019-Aug-15 22:22N 25°20' E 121°13'1419.5
2019-Aug-15 21:40N 25°22' E 121°28'319.1
2019-Aug-15 21:30N 25°23' E 121°32'1019.0
2019-Aug-15 20:59N 25°22' E 121°43'1018.8
2019-Aug-15 20:28N 25°21' E 121°53'2219.1
2019-Aug-15 19:20N 25°18' E 122°17'719.6
2019-Aug-15 18:59N 25°17' E 122°24'1019.0
2019-Aug-15 18:28N 25°17' E 122°35'  
2019-Aug-13 13:10N 25°17' E 122°19'  

Dump ship's entire track history